Broadalbin, NY

23:22 EST le 10 février 2016 (GMT -0500)
Sacandaga Lake | | Change Station
CLOSE
Current Station
Stations météorologiques personnelles
Location: Broadalbin, NY
Altitude: 770 ft
Stations météo à proximité

Alt. 770 ft 43.12 °N, 74.15 °W | Updated 15 seconds ago

Couvert
Couvert
22.8 ° F
Paraît 10 ° F
N
15.0
Vent Variable Vent de Ouest
Gusts 19.0 mph

Aujourd'hui
Haut(e) -- | Bas -- ° F
--% Risque de précip.
Hier
Haut(e) -- | Bas -- ° F
Precip. -- pouce
Pression 29.71 pouce
Visibilité 10.0 Miles terrestres
Nuages Peu 3800 ft
Nuageux 10000 ft
Refroidissement éolien 10 ° F
Point de rosée 20 ° F
Humidité 88%
Précipitations 0.00 pouce
Profondeur de la couche neigeuse Non disponible.
7:01 AM 5:20 PM
Lune montante, 9% visible
METAR KALB 110351Z 24005KT 10SM FEW038 BKN100 M03/M10 A2970 RMK AO2 SLP061 T10281100
Pression 29.71 pouce
Visibilité 10.0 Miles terrestres
Nuages Peu 3800 ft
Nuageux 10000 ft
Refroidissement éolien 10 ° F
Point de rosée 20 ° F
Humidité 88%
Précipitations 0.00 pouce
Profondeur de la couche neigeuse Non disponible.
7:01 AM 5:20 PM
Lune montante, 9% visible
METAR KALB 110351Z 24005KT 10SM FEW038 BKN100 M03/M10 A2970 RMK AO2 SLP061 T10281100

10-Day Weather Forecast

Almanac

Astronomie

Feb. 10, 2016 Lever Coucher
Temps réel
Crépuscule civil
Crépuscule nautique
Crépuscule astronomique
Lune
Durée de lumière visible
Longueur du jour
Tomorrow will be .
, % of the Moon is Illuminated

Extrêmes aujourd'hui

State Highs State Lows

Community

WunderPhotos

Upload Photos

1,892,012 Photos téléchargées !

WunderBlog® & News

Nearby

Qualité de l'air

  Qualité de l'air Indice de la qualité de l'air Polluant
Not available.

Épaisseur de neige

Station Depth Altitude

Activité sismique

Ville Distance Mag. Time & Date
Minimum magnitude displayed is 2.5.

Températures des eaux côtières

Lieu Température

Stations

Stations météo à proximité

Emplacement de la station Température Refroidissement éolien Point de rosée Humidité Vent Precip. Alt. Mise à jour Type
                   

Watches & Warnings

There are currently no watches in effect.